Back to Top

Language: 

My Weather Underground Personal Weather Station Historical Data with Graphs...

Delerius Weather Station Historical Data
Daily Summary for January 14, 2018 Units:  English    Metric   Both
« Previous Day
Next Day »
Daily Weekly Monthly Yearly Custom
  High: Low: Average:
Temperature: 39.4 °F 36.7 °F 38.3 °F
Dew Point: 36.3 °F 32.9 °F 34.5 °F
Humidity: 91 % 83 % 86 %
Wind Speed: 14.0 mph 0.0 mph 7.4 mph
Wind Gust: 25.0 mph - -
Wind:- - South
Pressure: 30.13 in 29.68 in -
Precipitation: 0.01 in    
Historical Graphs
 
 
Tabular Data for January 14, 2018
Time Temperature Dew Point Pressure Wind Wind Speed Wind Gust Humidity Rainfall Rate (Hourly) solar Conditions
00:05 39.4 °F 35.8 °F 30.12 in SE 5.0 mph 8.0 mph 87 % 0.00 in 0 W/m2
00:12 39.4 °F 36.1 °F 30.12 in SE 2.0 mph 6.0 mph 88 % 0.00 in 0 W/m2
00:22 39.4 °F 36.1 °F 30.12 in SE 5.0 mph 7.0 mph 88 % 0.00 in 0 W/m2
00:30 39.4 °F 36.1 °F 30.12 in SSE 3.0 mph 7.0 mph 88 % 0.00 in 0 W/m2
00:42 39.4 °F 36.1 °F 30.12 in SSE 5.0 mph 7.0 mph 88 % 0.00 in 0 W/m2
00:51 39.4 °F 36.1 °F 30.13 in SE 6.0 mph 9.0 mph 88 % 0.00 in 0 W/m2
01:06 39.4 °F 35.8 °F 30.12 in SSE 4.0 mph 6.0 mph 87 % 0.00 in 0 W/m2
01:16 39.4 °F 35.8 °F 30.12 in SE 5.0 mph 8.0 mph 87 % 0.00 in 0 W/m2
01:29 39.4 °F 35.8 °F 30.12 in Calm   5.0 mph 87 % 0.00 in 0 W/m2
01:36 39.4 °F 35.8 °F 30.11 in ESE 1.0 mph 4.0 mph 87 % 0.00 in 0 W/m2
01:43 39.4 °F 35.8 °F 30.12 in SSE 2.0 mph 5.0 mph 87 % 0.00 in 0 W/m2
01:52 39.4 °F 36.1 °F 30.11 in SE 5.0 mph 8.0 mph 88 % 0.00 in 0 W/m2
02:03 39.4 °F 36.1 °F 30.11 in SE 4.0 mph 8.0 mph 88 % 0.00 in 0 W/m2
02:11 39.4 °F 36.1 °F 30.11 in SE 5.0 mph 7.0 mph 88 % 0.00 in 0 W/m2
02:18 39.4 °F 36.1 °F 30.11 in SE 3.0 mph 6.0 mph 88 % 0.00 in 0 W/m2
02:55 39.4 °F 36.1 °F 30.10 in SE 6.0 mph 9.0 mph 88 % 0.00 in 0 W/m2
03:01 39.4 °F 36.1 °F 30.11 in SE 3.0 mph 6.0 mph 88 % 0.00 in 0 W/m2
03:17 39.4 °F 36.1 °F 30.10 in SE 5.0 mph 8.0 mph 88 % 0.00 in 0 W/m2
03:24 39.4 °F 36.1 °F 30.11 in SE 5.0 mph 8.0 mph 88 % 0.00 in 0 W/m2
03:45 39.4 °F 35.8 °F 30.10 in SSE 8.0 mph 10.0 mph 87 % 0.00 in 0 W/m2
03:50 39.4 °F 35.8 °F 30.10 in SSE 7.0 mph 9.0 mph 87 % 0.00 in 0 W/m2
03:55 39.4 °F 35.8 °F 30.10 in SE 7.0 mph 11.0 mph 87 % 0.00 in 0 W/m2
04:08 39.4 °F 35.2 °F 30.10 in SSE 6.0 mph 13.0 mph 85 % 0.00 in 0 W/m2
04:26 39.4 °F 35.5 °F 30.10 in South 3.0 mph 6.0 mph 86 % 0.00 in 0 W/m2
04:35 39.4 °F 35.5 °F 30.11 in South 5.0 mph 8.0 mph 86 % 0.00 in 0 W/m2
04:40 39.4 °F 35.2 °F 30.10 in SSE 4.0 mph 7.0 mph 85 % 0.00 in 0 W/m2
04:45 39.4 °F 35.2 °F 30.10 in SSE 5.0 mph 8.0 mph 85 % 0.00 in 0 W/m2
05:13 39.4 °F 35.2 °F 30.10 in SSE 5.0 mph 8.0 mph 85 % 0.00 in 0 W/m2
05:20 39.4 °F 35.2 °F 30.10 in SSE 6.0 mph 9.0 mph 85 % 0.00 in 0 W/m2
05:25 39.2 °F 35.4 °F 30.09 in South 6.0 mph 10.0 mph 86 % 0.00 in 0 W/m2
05:32 39.2 °F 35.4 °F 30.10 in South 5.0 mph 10.0 mph 86 % 0.00 in 0 W/m2
05:55 39.0 °F 35.2 °F 30.10 in SSE 7.0 mph 15.0 mph 86 % 0.00 in 0 W/m2
06:18 39.0 °F 35.5 °F 30.09 in SE 4.0 mph 6.0 mph 87 % 0.00 in 0 W/m2
06:47 38.7 °F 34.8 °F 30.09 in SE 7.0 mph 10.0 mph 86 % 0.00 in 0 W/m2
07:21 38.5 °F 34.9 °F 30.09 in SE 5.0 mph 8.0 mph 87 % 0.00 in 0 W/m2
07:32 38.5 °F 35.2 °F 30.09 in SE 6.0 mph 9.0 mph 88 % 0.00 in 0 W/m2
07:41 38.3 °F 35.1 °F 30.09 in SSE 7.0 mph 12.0 mph 88 % 0.00 in 0 W/m2
07:46 38.1 °F 34.9 °F 30.09 in SSE 7.0 mph 11.0 mph 88 % 0.00 in 0 W/m2
07:51 38.1 °F 34.9 °F 30.10 in SSE 7.0 mph 10.0 mph 88 % 0.00 in 0 W/m2
08:07 38.1 °F 34.6 °F 30.10 in SSE 8.0 mph 13.0 mph 87 % 0.00 in 0 W/m2
08:16 38.1 °F 34.6 °F 30.11 in SSW 5.0 mph 9.0 mph 87 % 0.00 in 0 W/m2
08:28 38.1 °F 34.3 °F 30.11 in South 5.0 mph 9.0 mph 86 % 0.00 in 0 W/m2
08:53 37.9 °F 34.1 °F 30.12 in SSW 5.0 mph 8.0 mph 86 % 0.00 in 5 W/m2
09:04 37.9 °F 34.1 °F 30.12 in South 5.0 mph 10.0 mph 86 % 0.00 in 7 W/m2
09:11 37.9 °F 34.1 °F 30.12 in SSW 4.0 mph 6.0 mph 86 % 0.00 in 9 W/m2
09:20 38.1 °F 34.3 °F 30.12 in South 5.0 mph 9.0 mph 86 % 0.00 in 16 W/m2
09:27 38.1 °F 34.3 °F 30.12 in SSE 2.0 mph 6.0 mph 86 % 0.00 in 18 W/m2
09:33 38.1 °F 34.3 °F 30.12 in SSE 3.0 mph 7.0 mph 86 % 0.00 in 18 W/m2
09:48 38.1 °F 34.3 °F 30.11 in SSE 6.0 mph 9.0 mph 86 % 0.00 in 19 W/m2
10:01 38.3 °F 34.2 °F 30.11 in SSE 5.0 mph 8.0 mph 85 % 0.00 in 28 W/m2
10:09 38.3 °F 34.2 °F 30.10 in SSE 6.0 mph 8.0 mph 85 % 0.00 in 32 W/m2
10:24 38.5 °F 34.1 °F 30.09 in SE 10.0 mph 14.0 mph 84 % 0.00 in 39 W/m2
10:37 38.5 °F 33.8 °F 30.09 in SE 6.0 mph 13.0 mph 83 % 0.00 in 47 W/m2
10:46 38.5 °F 33.8 °F 30.09 in SSE 8.0 mph 13.0 mph 83 % 0.00 in 47 W/m2
10:59 38.5 °F 33.8 °F 30.08 in South 8.0 mph 13.0 mph 83 % 0.00 in 44 W/m2
11:05 38.5 °F 33.8 °F 30.07 in SSE 10.0 mph 15.0 mph 83 % 0.00 in 53 W/m2
11:12 38.5 °F 33.8 °F 30.08 in SSE 8.0 mph 11.0 mph 83 % 0.00 in 49 W/m2
11:26 38.7 °F 33.9 °F 30.08 in SSE 7.0 mph 11.0 mph 83 % 0.00 in 53 W/m2
11:34 38.7 °F 33.9 °F 30.07 in SE 8.0 mph 13.0 mph 83 % 0.00 in 53 W/m2
11:49 38.7 °F 33.9 °F 30.07 in SSW 8.0 mph 14.0 mph 83 % 0.00 in 44 W/m2
12:01 38.7 °F 33.9 °F 30.07 in South 8.0 mph 13.0 mph 83 % 0.00 in 42 W/m2
12:11 38.7 °F 33.9 °F 30.06 in South 8.0 mph 13.0 mph 83 % 0.00 in 46 W/m2
12:28 38.8 °F 34.1 °F 30.06 in South 6.0 mph 10.0 mph 83 % 0.00 in 60 W/m2
12:36 38.8 °F 34.1 °F 30.06 in SSW 9.0 mph 13.0 mph 83 % 0.00 in 56 W/m2
12:54 38.8 °F 34.1 °F 30.04 in South 6.0 mph 11.0 mph 83 % 0.00 in 56 W/m2
13:10 38.8 °F 34.1 °F 30.03 in SSW 9.0 mph 15.0 mph 83 % 0.00 in 56 W/m2
13:22 38.7 °F 33.9 °F 30.02 in SSE 10.0 mph 16.0 mph 83 % 0.00 in 53 W/m2
13:29 38.8 °F 34.4 °F 30.02 in SSE 6.0 mph 13.0 mph 84 % 0.00 in 56 W/m2
13:47 38.8 °F 34.4 °F 30.02 in SSW 5.0 mph 9.0 mph 84 % 0.00 in 65 W/m2
13:53 38.8 °F 34.4 °F 30.02 in SSW 6.0 mph 9.0 mph 84 % 0.00 in 56 W/m2
14:01 38.8 °F 34.4 °F 30.01 in SSW 8.0 mph 14.0 mph 84 % 0.00 in 51 W/m2
14:09 38.7 °F 33.9 °F 30.00 in SSW 13.0 mph 21.0 mph 83 % 0.00 in 46 W/m2
14:14 38.5 °F 33.8 °F 30.00 in South 11.0 mph 20.0 mph 83 % 0.00 in 39 W/m2
14:24 38.5 °F 34.1 °F 29.99 in South 7.0 mph 12.0 mph 84 % 0.00 in 35 W/m2
14:33 38.3 °F 33.9 °F 29.98 in South 8.0 mph 16.0 mph 84 % 0.00 in 40 W/m2
14:40 38.3 °F 33.9 °F 29.99 in SSW 11.0 mph 22.0 mph 84 % 0.00 in 33 W/m2
14:45 38.1 °F 33.7 °F 29.99 in SW 10.0 mph 19.0 mph 84 % 0.00 in 28 W/m2
14:55 38.1 °F 33.7 °F 29.99 in SSW 10.0 mph 19.0 mph 84 % 0.00 in 23 W/m2
15:23 37.8 °F 33.4 °F 29.97 in South 10.0 mph 20.0 mph 84 % 0.00 in 16 W/m2
15:39 37.6 °F 33.2 °F 29.97 in SSW 14.0 mph 21.0 mph 84 % 0.00 in 12 W/m2
15:49 37.6 °F 33.2 °F 29.97 in SSW 13.0 mph 25.0 mph 84 % 0.00 in 7 W/m2
16:08 37.6 °F 33.5 °F 29.97 in SW 9.0 mph 15.0 mph 85 % 0.00 in 0 W/m2
16:16 37.6 °F 33.5 °F 29.97 in SW 11.0 mph 19.0 mph 85 % 0.00 in 0 W/m2
16:33 37.4 °F 33.3 °F 29.96 in SSW 10.0 mph 16.0 mph 85 % 0.00 in 0 W/m2
16:51 37.2 °F 33.1 °F 29.96 in South 9.0 mph 13.0 mph 85 % 0.00 in 0 W/m2
16:58 37.2 °F 33.1 °F 29.96 in South 8.0 mph 13.0 mph 85 % 0.00 in 0 W/m2
17:10 37.2 °F 33.1 °F 29.95 in SSE 6.0 mph 9.0 mph 85 % 0.00 in 0 W/m2
17:17 37.2 °F 33.1 °F 29.95 in SW 1.0 mph 4.0 mph 85 % 0.00 in 0 W/m2
17:23 37.2 °F 33.1 °F 29.95 in SSW 9.0 mph 14.0 mph 85 % 0.00 in 0 W/m2
17:32 37.0 °F 32.9 °F 29.94 in SW 9.0 mph 15.0 mph 85 % 0.00 in 0 W/m2
17:42 37.0 °F 32.9 °F 29.94 in SSW 10.0 mph 19.0 mph 85 % 0.00 in 0 W/m2
17:47 37.0 °F 32.9 °F 29.94 in SW 10.0 mph 18.0 mph 85 % 0.00 in 0 W/m2
17:52 37.0 °F 32.9 °F 29.94 in SW 12.0 mph 20.0 mph 85 % 0.00 in 0 W/m2
18:09 37.0 °F 32.9 °F 29.93 in SSW 13.0 mph 19.0 mph 85 % 0.00 in 0 W/m2
18:26 37.0 °F 33.2 °F 29.93 in SSW 11.0 mph 14.0 mph 86 % 0.00 in 0 W/m2
18:33 37.0 °F 33.2 °F 29.92 in South 9.0 mph 11.0 mph 86 % 0.00 in 0 W/m2
18:41 36.9 °F 33.1 °F 29.91 in South 8.0 mph 14.0 mph 86 % 0.00 in 0 W/m2
18:47 36.9 °F 33.1 °F 29.91 in South 8.0 mph 14.0 mph 86 % 0.00 in 0 W/m2
18:58 36.9 °F 33.1 °F 29.91 in South 9.0 mph 16.0 mph 86 % 0.00 in 0 W/m2
19:16 36.9 °F 33.1 °F 29.89 in South 11.0 mph 19.0 mph 86 % 0.00 in 0 W/m2
19:30 36.7 °F 33.2 °F 29.88 in South 11.0 mph 21.0 mph 87 % 0.00 in 0 W/m2
19:38 36.9 °F 33.4 °F 29.88 in South 10.0 mph 19.0 mph 87 % 0.00 in 0 W/m2
19:44 36.9 °F 33.4 °F 29.88 in South 10.0 mph 16.0 mph 87 % 0.00 in 0 W/m2
19:49 36.9 °F 33.4 °F 29.87 in South 7.0 mph 15.0 mph 87 % 0.00 in 0 W/m2
19:55 36.9 °F 33.4 °F 29.86 in South 10.0 mph 16.0 mph 87 % 0.00 in 0 W/m2
20:00 36.9 °F 33.4 °F 29.86 in South 11.0 mph 16.0 mph 87 % 0.00 in 0 W/m2
20:06 37.0 °F 33.5 °F 29.86 in SSE 6.0 mph 13.0 mph 87 % 0.00 in 0 W/m2
20:11 37.0 °F 33.5 °F 29.85 in SSW 9.0 mph 16.0 mph 87 % 0.00 in 0 W/m2
20:19 37.0 °F 33.5 °F 29.85 in SSW 8.0 mph 15.0 mph 87 % 0.00 in 0 W/m2
20:27 37.0 °F 33.5 °F 29.84 in SSW 7.0 mph 15.0 mph 87 % 0.00 in 0 W/m2
20:47 37.2 °F 33.7 °F 29.83 in SSW 9.0 mph 15.0 mph 87 % 0.00 in 0 W/m2
20:55 37.4 °F 33.9 °F 29.82 in SSW 10.0 mph 16.0 mph 87 % 0.00 in 0 W/m2
21:09 37.6 °F 34.1 °F 29.81 in SW 8.0 mph 16.0 mph 87 % 0.00 in 0 W/m2
21:14 37.6 °F 34.1 °F 29.80 in SSW 11.0 mph 19.0 mph 87 % 0.00 in 0 W/m2
21:22 37.6 °F 34.1 °F 29.80 in SSW 11.0 mph 16.0 mph 87 % 0.00 in 0 W/m2
21:32 37.8 °F 34.2 °F 29.79 in South 11.0 mph 23.0 mph 87 % 0.00 in 0 W/m2
21:41 37.9 °F 34.4 °F 29.79 in SSW 10.0 mph 16.0 mph 87 % 0.00 in 0 W/m2
22:06 38.3 °F 34.8 °F 29.77 in SSW 9.0 mph 18.0 mph 87 % 0.00 in 0 W/m2
22:18 38.5 °F 34.9 °F 29.76 in SSW 9.0 mph 14.0 mph 87 % 0.00 in 0 W/m2
22:23 38.5 °F 34.9 °F 29.76 in SSW 9.0 mph 12.0 mph 87 % 0.00 in 0 W/m2
22:30 38.7 °F 35.4 °F 29.75 in SSW 10.0 mph 19.0 mph 88 % 0.00 in 0 W/m2
22:38 38.7 °F 35.4 °F 29.75 in SSW 8.0 mph 15.0 mph 88 % 0.00 in 0 W/m2
22:43 38.7 °F 35.4 °F 29.74 in SSW 8.0 mph 16.0 mph 88 % 0.00 in 0 W/m2
22:53 38.8 °F 35.6 °F 29.74 in South 9.0 mph 19.0 mph 88 % 0.00 in 0 W/m2
23:02 38.8 °F 35.6 °F 29.73 in SSW 8.0 mph 13.0 mph 88 % 0.00 in 0 W/m2
23:10 38.8 °F 35.6 °F 29.72 in South 9.0 mph 15.0 mph 88 % 0.00 in 0 W/m2
23:16 38.7 °F 35.7 °F 29.72 in SSE 7.0 mph 12.0 mph 89 % 0.00 in 0 W/m2
23:23 38.7 °F 35.7 °F 29.71 in SSE 8.0 mph 14.0 mph 89 % 0.00 in 0 W/m2
23:28 38.7 °F 36.0 °F 29.70 in SSE 9.0 mph 14.0 mph 90 % 0.00 in 0 W/m2
23:35 38.7 °F 36.0 °F 29.70 in SSE 10.0 mph 14.0 mph 90 % 0.00 in 0 W/m2
23:40 38.7 °F 36.0 °F 29.69 in SSE 7.0 mph 11.0 mph 91 % 0.01 in 0 W/m2
23:51 38.7 °F 36.3 °F 29.68 in SSE 8.0 mph 11.0 mph 91 % 0.01 in 0 W/m2
Delerius-Weather
Compliments of Weather Underground - 1.5 mb

Data updates at regular intervals.